sensor_id;sensor_type;location;lat;lon;timestamp;P1;durP1;ratioP1;P2;durP2;ratioP2
58685;SDS011;44465;53.206;-6.106;2022-07-21T00:01:13;4.13;;;1.30;;
58685;SDS011;44465;53.206;-6.106;2022-07-21T00:03:39;2.40;;;1.52;;
58685;SDS011;44465;53.206;-6.106;2022-07-21T00:06:04;4.35;;;1.80;;
58685;SDS011;44465;53.206;-6.106;2022-07-21T00:08:30;1.45;;;1.35;;
58685;SDS011;44465;53.206;-6.106;2022-07-21T00:10:56;1.95;;;1.10;;
58685;SDS011;44465;53.206;-6.106;2022-07-21T00:13:21;4.05;;;1.58;;
58685;SDS011;44465;53.206;-6.106;2022-07-21T00:15:47;2.22;;;1.00;;
58685;SDS011;44465;53.206;-6.106;2022-07-21T00:18:14;2.70;;;1.38;;
58685;SDS011;44465;53.206;-6.106;2022-07-21T00:20:39;2.70;;;1.10;;
58685;SDS011;44465;53.206;-6.106;2022-07-21T00:23:05;4.78;;;1.35;;
58685;SDS011;44465;53.206;-6.106;2022-07-21T00:25:31;2.10;;;1.08;;
58685;SDS011;44465;53.206;-6.106;2022-07-21T00:27:57;3.90;;;1.13;;
58685;SDS011;44465;53.206;-6.106;2022-07-21T00:30:22;2.35;;;1.23;;
58685;SDS011;44465;53.206;-6.106;2022-07-21T00:32:48;1.67;;;0.95;;
58685;SDS011;44465;53.206;-6.106;2022-07-21T00:35:14;3.85;;;1.40;;
58685;SDS011;44465;53.206;-6.106;2022-07-21T00:37:40;2.42;;;1.27;;
58685;SDS011;44465;53.206;-6.106;2022-07-21T00:40:07;2.50;;;1.50;;
58685;SDS011;44465;53.206;-6.106;2022-07-21T00:42:33;1.63;;;1.00;;
58685;SDS011;44465;53.206;-6.106;2022-07-21T00:44:59;5.00;;;1.35;;
58685;SDS011;44465;53.206;-6.106;2022-07-21T00:47:26;2.15;;;1.35;;
58685;SDS011;44465;53.206;-6.106;2022-07-21T00:49:56;3.08;;;1.38;;
58685;SDS011;44465;53.206;-6.106;2022-07-21T00:52:23;1.13;;;1.02;;
58685;SDS011;44465;53.206;-6.106;2022-07-21T00:54:49;1.73;;;1.00;;
58685;SDS011;44465;53.206;-6.106;2022-07-21T00:57:15;3.28;;;1.27;;
58685;SDS011;44465;53.206;-6.106;2022-07-21T00:59:41;3.00;;;1.30;;
58685;SDS011;44465;53.206;-6.106;2022-07-21T01:02:08;3.13;;;1.63;;
58685;SDS011;44465;53.206;-6.106;2022-07-21T01:04:34;4.90;;;1.45;;
58685;SDS011;44465;53.206;-6.106;2022-07-21T01:07:00;3.67;;;1.33;;
58685;SDS011;44465;53.206;-6.106;2022-07-21T01:09:26;1.83;;;1.30;;
58685;SDS011;44465;53.206;-6.106;2022-07-21T01:11:52;2.40;;;1.55;;
58685;SDS011;44465;53.206;-6.106;2022-07-21T01:14:18;2.33;;;1.35;;
58685;SDS011;44465;53.206;-6.106;2022-07-21T01:16:44;1.70;;;1.13;;
58685;SDS011;44465;53.206;-6.106;2022-07-21T01:19:10;2.92;;;1.48;;
58685;SDS011;44465;53.206;-6.106;2022-07-21T01:21:37;1.90;;;1.10;;
58685;SDS011;44465;53.206;-6.106;2022-07-21T01:24:05;1.80;;;1.00;;
58685;SDS011;44465;53.206;-6.106;2022-07-21T01:26:39;1.52;;;1.30;;
58685;SDS011;44465;53.206;-6.106;2022-07-21T01:29:06;1.20;;;1.10;;
58685;SDS011;44465;53.206;-6.106;2022-07-21T01:31:31;2.55;;;1.67;;
58685;SDS011;44465;53.206;-6.106;2022-07-21T01:33:56;2.50;;;1.88;;
58685;SDS011;44465;53.206;-6.106;2022-07-21T01:36:22;2.67;;;1.33;;
58685;SDS011;44465;53.206;-6.106;2022-07-21T01:38:47;2.47;;;1.30;;
58685;SDS011;44465;53.206;-6.106;2022-07-21T01:41:31;2.22;;;1.52;;
58685;SDS011;44465;53.206;-6.106;2022-07-21T01:44:02;2.33;;;1.17;;
58685;SDS011;44465;53.206;-6.106;2022-07-21T01:46:34;2.13;;;1.75;;
58685;SDS011;44465;53.206;-6.106;2022-07-21T01:49:02;2.80;;;1.55;;
58685;SDS011;44465;53.206;-6.106;2022-07-21T01:51:28;2.38;;;1.67;;
58685;SDS011;44465;53.206;-6.106;2022-07-21T01:53:54;1.90;;;1.30;;
58685;SDS011;44465;53.206;-6.106;2022-07-21T01:56:20;2.55;;;1.50;;
58685;SDS011;44465;53.206;-6.106;2022-07-21T01:58:49;2.47;;;1.00;;
58685;SDS011;44465;53.206;-6.106;2022-07-21T02:01:16;3.92;;;1.40;;
58685;SDS011;44465;53.206;-6.106;2022-07-21T02:03:43;3.00;;;1.20;;
58685;SDS011;44465;53.206;-6.106;2022-07-21T02:06:09;2.10;;;1.50;;
58685;SDS011;44465;53.206;-6.106;2022-07-21T02:08:35;3.88;;;1.50;;
58685;SDS011;44465;53.206;-6.106;2022-07-21T02:11:02;1.77;;;1.23;;
58685;SDS011;44465;53.206;-6.106;2022-07-21T02:13:29;2.67;;;1.42;;
58685;SDS011;44465;53.206;-6.106;2022-07-21T02:15:54;4.03;;;1.48;;
58685;SDS011;44465;53.206;-6.106;2022-07-21T02:18:20;1.75;;;1.27;;
58685;SDS011;44465;53.206;-6.106;2022-07-21T02:20:45;1.50;;;1.05;;
58685;SDS011;44465;53.206;-6.106;2022-07-21T02:23:13;3.67;;;1.30;;
58685;SDS011;44465;53.206;-6.106;2022-07-21T02:25:39;1.00;;;1.00;;
58685;SDS011;44465;53.206;-6.106;2022-07-21T02:28:05;3.17;;;1.02;;
58685;SDS011;44465;53.206;-6.106;2022-07-21T02:30:30;1.40;;;1.10;;
58685;SDS011;44465;53.206;-6.106;2022-07-21T02:32:56;1.75;;;1.40;;
58685;SDS011;44465;53.206;-6.106;2022-07-21T02:35:21;2.38;;;1.17;;
58685;SDS011;44465;53.206;-6.106;2022-07-21T02:37:47;2.95;;;1.38;;
58685;SDS011;44465;53.206;-6.106;2022-07-21T02:40:12;3.40;;;1.10;;
58685;SDS011;44465;53.206;-6.106;2022-07-21T02:42:37;2.88;;;1.45;;
58685;SDS011;44465;53.206;-6.106;2022-07-21T02:45:05;2.22;;;1.33;;
58685;SDS011;44465;53.206;-6.106;2022-07-21T02:47:32;3.33;;;1.50;;
58685;SDS011;44465;53.206;-6.106;2022-07-21T02:49:57;2.00;;;1.30;;
58685;SDS011;44465;53.206;-6.106;2022-07-21T02:52:23;3.55;;;1.40;;
58685;SDS011;44465;53.206;-6.106;2022-07-21T02:54:48;1.60;;;1.20;;
58685;SDS011;44465;53.206;-6.106;2022-07-21T02:57:14;1.40;;;0.98;;
58685;SDS011;44465;53.206;-6.106;2022-07-21T02:59:39;1.70;;;1.55;;
58685;SDS011;44465;53.206;-6.106;2022-07-21T03:02:05;2.60;;;1.58;;
58685;SDS011;44465;53.206;-6.106;2022-07-21T03:04:30;2.15;;;1.45;;
58685;SDS011;44465;53.206;-6.106;2022-07-21T03:06:56;1.48;;;1.35;;
58685;SDS011;44465;53.206;-6.106;2022-07-21T03:09:21;1.95;;;1.20;;
58685;SDS011;44465;53.206;-6.106;2022-07-21T03:11:47;3.40;;;1.30;;
58685;SDS011;44465;53.206;-6.106;2022-07-21T03:14:12;3.13;;;1.45;;
58685;SDS011;44465;53.206;-6.106;2022-07-21T03:16:37;2.28;;;1.30;;
58685;SDS011;44465;53.206;-6.106;2022-07-21T03:19:03;3.53;;;1.65;;
58685;SDS011;44465;53.206;-6.106;2022-07-21T03:21:28;3.60;;;1.50;;
58685;SDS011;44465;53.206;-6.106;2022-07-21T03:23:54;2.63;;;1.55;;
58685;SDS011;44465;53.206;-6.106;2022-07-21T03:26:19;2.83;;;1.50;;
58685;SDS011;44465;53.206;-6.106;2022-07-21T03:28:45;4.10;;;1.20;;
58685;SDS011;44465;53.206;-6.106;2022-07-21T03:31:10;2.00;;;1.30;;
58685;SDS011;44465;53.206;-6.106;2022-07-21T03:33:36;2.45;;;1.40;;
58685;SDS011;44465;53.206;-6.106;2022-07-21T03:36:02;2.72;;;1.35;;
58685;SDS011;44465;53.206;-6.106;2022-07-21T03:38:36;2.75;;;1.55;;
58685;SDS011;44465;53.206;-6.106;2022-07-21T03:41:02;4.35;;;1.83;;
58685;SDS011;44465;53.206;-6.106;2022-07-21T03:43:27;2.78;;;1.05;;
58685;SDS011;44465;53.206;-6.106;2022-07-21T03:45:53;2.10;;;1.00;;
58685;SDS011;44465;53.206;-6.106;2022-07-21T03:48:18;3.03;;;1.70;;
58685;SDS011;44465;53.206;-6.106;2022-07-21T03:50:44;5.10;;;1.52;;
58685;SDS011;44465;53.206;-6.106;2022-07-21T03:53:09;1.80;;;1.45;;
58685;SDS011;44465;53.206;-6.106;2022-07-21T03:55:35;3.95;;;1.30;;
58685;SDS011;44465;53.206;-6.106;2022-07-21T03:58:02;3.22;;;0.98;;
58685;SDS011;44465;53.206;-6.106;2022-07-21T04:00:40;3.78;;;1.35;;
58685;SDS011;44465;53.206;-6.106;2022-07-21T04:03:08;3.00;;;1.60;;
58685;SDS011;44465;53.206;-6.106;2022-07-21T04:05:34;2.33;;;1.25;;
58685;SDS011;44465;53.206;-6.106;2022-07-21T04:08:00;2.17;;;1.67;;
58685;SDS011;44465;53.206;-6.106;2022-07-21T04:10:27;4.13;;;1.45;;
58685;SDS011;44465;53.206;-6.106;2022-07-21T04:12:56;3.15;;;1.50;;
58685;SDS011;44465;53.206;-6.106;2022-07-21T04:15:23;3.67;;;1.40;;
58685;SDS011;44465;53.206;-6.106;2022-07-21T04:17:49;3.33;;;1.85;;
58685;SDS011;44465;53.206;-6.106;2022-07-21T04:20:15;3.00;;;1.30;;
58685;SDS011;44465;53.206;-6.106;2022-07-21T04:22:42;3.20;;;1.25;;
58685;SDS011;44465;53.206;-6.106;2022-07-21T04:25:08;5.40;;;1.73;;
58685;SDS011;44465;53.206;-6.106;2022-07-21T04:27:35;4.00;;;1.55;;
58685;SDS011;44465;53.206;-6.106;2022-07-21T04:30:03;5.72;;;1.70;;
58685;SDS011;44465;53.206;-6.106;2022-07-21T04:32:30;5.78;;;2.03;;
58685;SDS011;44465;53.206;-6.106;2022-07-21T04:34:55;2.00;;;1.33;;
58685;SDS011;44465;53.206;-6.106;2022-07-21T04:37:21;2.00;;;1.20;;
58685;SDS011;44465;53.206;-6.106;2022-07-21T04:39:47;5.03;;;1.77;;
58685;SDS011;44465;53.206;-6.106;2022-07-21T04:42:12;5.82;;;2.28;;
58685;SDS011;44465;53.206;-6.106;2022-07-21T04:44:38;6.20;;;1.50;;
58685;SDS011;44465;53.206;-6.106;2022-07-21T04:47:03;4.13;;;1.30;;
58685;SDS011;44465;53.206;-6.106;2022-07-21T04:49:29;3.08;;;1.50;;
58685;SDS011;44465;53.206;-6.106;2022-07-21T04:51:55;3.03;;;1.48;;
58685;SDS011;44465;53.206;-6.106;2022-07-21T04:54:20;4.78;;;1.90;;
58685;SDS011;44465;53.206;-6.106;2022-07-21T04:56:46;4.10;;;2.25;;
58685;SDS011;44465;53.206;-6.106;2022-07-21T04:59:11;5.72;;;2.03;;
58685;SDS011;44465;53.206;-6.106;2022-07-21T05:01:37;6.07;;;1.98;;
58685;SDS011;44465;53.206;-6.106;2022-07-21T05:04:04;7.22;;;2.03;;
58685;SDS011;44465;53.206;-6.106;2022-07-21T05:06:30;3.00;;;1.73;;
58685;SDS011;44465;53.206;-6.106;2022-07-21T05:08:56;4.05;;;1.70;;
58685;SDS011;44465;53.206;-6.106;2022-07-21T05:11:21;5.72;;;2.13;;
58685;SDS011;44465;53.206;-6.106;2022-07-21T05:13:47;3.28;;;1.70;;
58685;SDS011;44465;53.206;-6.106;2022-07-21T05:16:13;6.45;;;1.83;;
58685;SDS011;44465;53.206;-6.106;2022-07-21T05:18:38;4.20;;;2.03;;
58685;SDS011;44465;53.206;-6.106;2022-07-21T05:21:04;5.60;;;1.95;;
58685;SDS011;44465;53.206;-6.106;2022-07-21T05:23:29;3.20;;;1.55;;
58685;SDS011;44465;53.206;-6.106;2022-07-21T05:25:55;7.32;;;1.92;;
58685;SDS011;44465;53.206;-6.106;2022-07-21T05:28:20;6.38;;;1.90;;
58685;SDS011;44465;53.206;-6.106;2022-07-21T05:30:46;5.18;;;2.10;;
58685;SDS011;44465;53.206;-6.106;2022-07-21T05:33:11;9.13;;;2.30;;
58685;SDS011;44465;53.206;-6.106;2022-07-21T05:35:37;7.28;;;2.13;;
58685;SDS011;44465;53.206;-6.106;2022-07-21T05:38:02;7.47;;;2.00;;
58685;SDS011;44465;53.206;-6.106;2022-07-21T05:40:28;4.68;;;1.80;;
58685;SDS011;44465;53.206;-6.106;2022-07-21T05:42:53;4.82;;;2.03;;
58685;SDS011;44465;53.206;-6.106;2022-07-21T05:45:19;5.85;;;1.98;;
58685;SDS011;44465;53.206;-6.106;2022-07-21T05:47:44;5.07;;;2.17;;
58685;SDS011;44465;53.206;-6.106;2022-07-21T05:50:11;3.60;;;1.63;;
58685;SDS011;44465;53.206;-6.106;2022-07-21T05:52:37;4.82;;;1.73;;
58685;SDS011;44465;53.206;-6.106;2022-07-21T05:55:03;7.63;;;1.85;;
58685;SDS011;44465;53.206;-6.106;2022-07-21T05:57:29;5.95;;;1.98;;
58685;SDS011;44465;53.206;-6.106;2022-07-21T05:59:55;7.95;;;2.42;;
58685;SDS011;44465;53.206;-6.106;2022-07-21T06:02:20;6.15;;;2.30;;
58685;SDS011;44465;53.206;-6.106;2022-07-21T06:04:46;6.25;;;1.90;;
58685;SDS011;44465;53.206;-6.106;2022-07-21T06:07:11;8.13;;;1.90;;
58685;SDS011;44465;53.206;-6.106;2022-07-21T06:09:37;5.20;;;2.17;;
58685;SDS011;44465;53.206;-6.106;2022-07-21T06:12:02;6.30;;;2.30;;
58685;SDS011;44465;53.206;-6.106;2022-07-21T06:14:28;4.60;;;1.88;;
58685;SDS011;44465;53.206;-6.106;2022-07-21T06:16:54;4.70;;;1.95;;
58685;SDS011;44465;53.206;-6.106;2022-07-21T06:19:19;7.68;;;2.65;;
58685;SDS011;44465;53.206;-6.106;2022-07-21T06:21:46;7.03;;;1.90;;
58685;SDS011;44465;53.206;-6.106;2022-07-21T06:24:12;5.95;;;1.95;;
58685;SDS011;44465;53.206;-6.106;2022-07-21T06:26:38;5.85;;;2.00;;
58685;SDS011;44465;53.206;-6.106;2022-07-21T06:29:06;6.03;;;2.47;;
58685;SDS011;44465;53.206;-6.106;2022-07-21T06:31:32;12.10;;;2.40;;
58685;SDS011;44465;53.206;-6.106;2022-07-21T06:33:58;7.05;;;2.22;;
58685;SDS011;44465;53.206;-6.106;2022-07-21T06:36:24;9.15;;;2.10;;
58685;SDS011;44465;53.206;-6.106;2022-07-21T06:38:49;4.65;;;1.77;;
58685;SDS011;44465;53.206;-6.106;2022-07-21T06:41:15;6.32;;;2.03;;
58685;SDS011;44465;53.206;-6.106;2022-07-21T06:43:40;7.78;;;2.20;;
58685;SDS011;44465;53.206;-6.106;2022-07-21T06:46:06;5.97;;;2.08;;
58685;SDS011;44465;53.206;-6.106;2022-07-21T06:48:31;4.70;;;2.00;;
58685;SDS011;44465;53.206;-6.106;2022-07-21T06:50:57;5.65;;;2.03;;
58685;SDS011;44465;53.206;-6.106;2022-07-21T06:53:23;8.27;;;2.10;;
58685;SDS011;44465;53.206;-6.106;2022-07-21T06:55:49;7.75;;;2.03;;
58685;SDS011;44465;53.206;-6.106;2022-07-21T06:58:18;7.40;;;2.25;;
58685;SDS011;44465;53.206;-6.106;2022-07-21T07:00:47;7.03;;;2.25;;
58685;SDS011;44465;53.206;-6.106;2022-07-21T07:03:13;5.15;;;2.40;;
58685;SDS011;44465;53.206;-6.106;2022-07-21T07:05:40;5.68;;;1.85;;
58685;SDS011;44465;53.206;-6.106;2022-07-21T07:08:07;5.23;;;2.07;;
58685;SDS011;44465;53.206;-6.106;2022-07-21T07:10:32;5.28;;;2.03;;
58685;SDS011;44465;53.206;-6.106;2022-07-21T07:12:58;7.93;;;1.90;;
58685;SDS011;44465;53.206;-6.106;2022-07-21T07:15:24;8.30;;;2.17;;
58685;SDS011;44465;53.206;-6.106;2022-07-21T07:17:50;6.95;;;2.20;;
58685;SDS011;44465;53.206;-6.106;2022-07-21T07:20:16;5.90;;;1.90;;
58685;SDS011;44465;53.206;-6.106;2022-07-21T07:22:42;7.70;;;2.30;;
58685;SDS011;44465;53.206;-6.106;2022-07-21T07:25:07;5.90;;;2.00;;
58685;SDS011;44465;53.206;-6.106;2022-07-21T07:27:33;4.75;;;2.10;;
58685;SDS011;44465;53.206;-6.106;2022-07-21T07:29:59;4.60;;;2.08;;
58685;SDS011;44465;53.206;-6.106;2022-07-21T07:32:24;4.28;;;1.90;;
58685;SDS011;44465;53.206;-6.106;2022-07-21T07:34:50;5.25;;;1.92;;
58685;SDS011;44465;53.206;-6.106;2022-07-21T07:37:15;6.68;;;1.88;;
58685;SDS011;44465;53.206;-6.106;2022-07-21T07:39:41;2.63;;;1.90;;
58685;SDS011;44465;53.206;-6.106;2022-07-21T07:42:07;5.97;;;2.08;;
58685;SDS011;44465;53.206;-6.106;2022-07-21T07:44:32;6.22;;;1.90;;
58685;SDS011;44465;53.206;-6.106;2022-07-21T07:46:58;6.00;;;2.30;;
58685;SDS011;44465;53.206;-6.106;2022-07-21T07:49:28;7.97;;;2.10;;
58685;SDS011;44465;53.206;-6.106;2022-07-21T07:54:20;4.32;;;2.03;;
58685;SDS011;44465;53.206;-6.106;2022-07-21T07:56:46;4.78;;;1.88;;
58685;SDS011;44465;53.206;-6.106;2022-07-21T07:59:11;3.53;;;1.60;;
58685;SDS011;44465;53.206;-6.106;2022-07-21T08:01:36;2.35;;;1.70;;
58685;SDS011;44465;53.206;-6.106;2022-07-21T08:04:02;3.88;;;1.60;;
58685;SDS011;44465;53.206;-6.106;2022-07-21T08:06:28;7.60;;;1.88;;
58685;SDS011;44465;53.206;-6.106;2022-07-21T08:08:53;4.10;;;2.25;;
58685;SDS011;44465;53.206;-6.106;2022-07-21T08:11:18;6.45;;;2.30;;
58685;SDS011;44465;53.206;-6.106;2022-07-21T08:13:44;5.00;;;2.05;;
58685;SDS011;44465;53.206;-6.106;2022-07-21T08:16:09;8.20;;;2.30;;
58685;SDS011;44465;53.206;-6.106;2022-07-21T08:18:37;6.03;;;2.05;;
58685;SDS011;44465;53.206;-6.106;2022-07-21T08:21:03;5.32;;;1.60;;
58685;SDS011;44465;53.206;-6.106;2022-07-21T08:23:28;5.72;;;1.90;;
58685;SDS011;44465;53.206;-6.106;2022-07-21T08:25:54;5.32;;;1.98;;
58685;SDS011;44465;53.206;-6.106;2022-07-21T08:28:19;7.50;;;2.00;;
58685;SDS011;44465;53.206;-6.106;2022-07-21T08:30:45;9.15;;;1.90;;
58685;SDS011;44465;53.206;-6.106;2022-07-21T08:33:10;5.82;;;2.10;;
58685;SDS011;44465;53.206;-6.106;2022-07-21T08:35:36;9.02;;;2.40;;
58685;SDS011;44465;53.206;-6.106;2022-07-21T08:38:05;6.80;;;1.75;;
58685;SDS011;44465;53.206;-6.106;2022-07-21T08:40:36;6.70;;;1.90;;
58685;SDS011;44465;53.206;-6.106;2022-07-21T08:43:04;10.70;;;2.00;;
58685;SDS011;44465;53.206;-6.106;2022-07-21T08:45:30;6.00;;;2.00;;
58685;SDS011;44465;53.206;-6.106;2022-07-21T08:47:56;4.05;;;1.83;;
58685;SDS011;44465;53.206;-6.106;2022-07-21T08:50:27;4.43;;;1.42;;
58685;SDS011;44465;53.206;-6.106;2022-07-21T08:52:55;7.07;;;1.75;;
58685;SDS011;44465;53.206;-6.106;2022-07-21T08:55:21;7.22;;;1.80;;
58685;SDS011;44465;53.206;-6.106;2022-07-21T08:57:47;6.63;;;2.03;;
58685;SDS011;44465;53.206;-6.106;2022-07-21T09:00:13;11.43;;;2.28;;
58685;SDS011;44465;53.206;-6.106;2022-07-21T09:02:39;7.05;;;2.10;;
58685;SDS011;44465;53.206;-6.106;2022-07-21T09:05:05;5.43;;;1.50;;
58685;SDS011;44465;53.206;-6.106;2022-07-21T09:10:24;4.60;;;1.92;;
58685;SDS011;44465;53.206;-6.106;2022-07-21T09:12:53;4.78;;;1.55;;
58685;SDS011;44465;53.206;-6.106;2022-07-21T09:15:21;9.02;;;2.78;;
58685;SDS011;44465;53.206;-6.106;2022-07-21T09:20:33;6.65;;;1.65;;
58685;SDS011;44465;53.206;-6.106;2022-07-21T09:25:45;8.27;;;1.85;;
58685;SDS011;44465;53.206;-6.106;2022-07-21T09:30:51;4.43;;;1.60;;
58685;SDS011;44465;53.206;-6.106;2022-07-21T09:36:02;6.05;;;2.00;;
58685;SDS011;44465;53.206;-6.106;2022-07-21T09:38:37;5.80;;;2.33;;
58685;SDS011;44465;53.206;-6.106;2022-07-21T09:41:11;3.67;;;1.83;;
58685;SDS011;44465;53.206;-6.106;2022-07-21T09:43:42;6.60;;;2.25;;
58685;SDS011;44465;53.206;-6.106;2022-07-21T09:46:20;6.00;;;1.83;;
58685;SDS011;44465;53.206;-6.106;2022-07-21T09:51:34;5.60;;;1.73;;
58685;SDS011;44465;53.206;-6.106;2022-07-21T09:54:07;11.77;;;1.80;;
58685;SDS011;44465;53.206;-6.106;2022-07-21T09:56:36;7.13;;;2.35;;
58685;SDS011;44465;53.206;-6.106;2022-07-21T09:59:05;6.88;;;1.90;;
58685;SDS011;44465;53.206;-6.106;2022-07-21T10:01:31;7.82;;;1.75;;
58685;SDS011;44465;53.206;-6.106;2022-07-21T10:03:58;6.50;;;1.83;;
58685;SDS011;44465;53.206;-6.106;2022-07-21T10:06:45;6.68;;;1.80;;
58685;SDS011;44465;53.206;-6.106;2022-07-21T10:09:11;5.57;;;2.00;;
58685;SDS011;44465;53.206;-6.106;2022-07-21T10:11:36;5.90;;;2.05;;
58685;SDS011;44465;53.206;-6.106;2022-07-21T10:14:04;4.72;;;2.00;;
58685;SDS011;44465;53.206;-6.106;2022-07-21T10:16:30;10.63;;;2.60;;
58685;SDS011;44465;53.206;-6.106;2022-07-21T10:19:00;12.80;;;2.67;;
58685;SDS011;44465;53.206;-6.106;2022-07-21T10:23:59;9.70;;;2.40;;
58685;SDS011;44465;53.206;-6.106;2022-07-21T10:26:24;21.42;;;4.00;;
58685;SDS011;44465;53.206;-6.106;2022-07-21T10:28:50;15.40;;;3.08;;
58685;SDS011;44465;53.206;-6.106;2022-07-21T10:31:17;16.90;;;2.72;;
58685;SDS011;44465;53.206;-6.106;2022-07-21T10:42:00;7.20;;;2.22;;
58685;SDS011;44465;53.206;-6.106;2022-07-21T10:44:39;9.32;;;2.38;;
58685;SDS011;44465;53.206;-6.106;2022-07-21T10:47:07;11.52;;;2.53;;
58685;SDS011;44465;53.206;-6.106;2022-07-21T10:57:35;8.55;;;2.20;;
58685;SDS011;44465;53.206;-6.106;2022-07-21T11:00:21;9.80;;;2.45;;
58685;SDS011;44465;53.206;-6.106;2022-07-21T11:02:48;9.70;;;2.00;;
58685;SDS011;44465;53.206;-6.106;2022-07-21T11:05:16;8.68;;;2.58;;
58685;SDS011;44465;53.206;-6.106;2022-07-21T11:10:37;8.25;;;2.35;;
58685;SDS011;44465;53.206;-6.106;2022-07-21T11:13:04;6.53;;;2.38;;
58685;SDS011;44465;53.206;-6.106;2022-07-21T11:15:53;5.47;;;1.52;;
58685;SDS011;44465;53.206;-6.106;2022-07-21T11:18:25;6.20;;;2.28;;
58685;SDS011;44465;53.206;-6.106;2022-07-21T11:24:01;14.45;;;2.47;;
58685;SDS011;44465;53.206;-6.106;2022-07-21T11:26:24;13.35;;;2.45;;
58685;SDS011;44465;53.206;-6.106;2022-07-21T11:29:06;23.42;;;3.20;;
58685;SDS011;44465;53.206;-6.106;2022-07-21T11:31:32;23.90;;;4.18;;
58685;SDS011;44465;53.206;-6.106;2022-07-21T11:34:11;19.73;;;2.88;;
58685;SDS011;44465;53.206;-6.106;2022-07-21T11:36:37;22.77;;;4.03;;
58685;SDS011;44465;53.206;-6.106;2022-07-21T11:39:07;17.33;;;3.08;;
58685;SDS011;44465;53.206;-6.106;2022-07-21T11:41:34;20.40;;;3.10;;
58685;SDS011;44465;53.206;-6.106;2022-07-21T11:44:01;16.52;;;2.63;;
58685;SDS011;44465;53.206;-6.106;2022-07-21T11:46:27;18.63;;;3.15;;
58685;SDS011;44465;53.206;-6.106;2022-07-21T11:49:03;16.23;;;3.08;;
58685;SDS011;44465;53.206;-6.106;2022-07-21T11:51:30;11.40;;;2.67;;
58685;SDS011;44465;53.206;-6.106;2022-07-21T11:53:56;11.75;;;2.60;;
58685;SDS011;44465;53.206;-6.106;2022-07-21T11:56:21;15.70;;;2.50;;
58685;SDS011;44465;53.206;-6.106;2022-07-21T11:58:48;19.77;;;2.92;;
58685;SDS011;44465;53.206;-6.106;2022-07-21T12:01:14;24.00;;;3.58;;
58685;SDS011;44465;53.206;-6.106;2022-07-21T12:03:51;11.68;;;2.47;;
58685;SDS011;44465;53.206;-6.106;2022-07-21T12:08:43;18.02;;;2.65;;
58685;SDS011;44465;53.206;-6.106;2022-07-21T12:11:10;9.30;;;2.28;;
58685;SDS011;44465;53.206;-6.106;2022-07-21T12:16:22;15.60;;;2.13;;
58685;SDS011;44465;53.206;-6.106;2022-07-21T12:18:47;12.77;;;2.65;;
58685;SDS011;44465;53.206;-6.106;2022-07-21T12:21:13;10.20;;;2.40;;
58685;SDS011;44465;53.206;-6.106;2022-07-21T12:23:39;10.27;;;2.10;;
58685;SDS011;44465;53.206;-6.106;2022-07-21T12:26:04;13.77;;;2.00;;
58685;SDS011;44465;53.206;-6.106;2022-07-21T12:31:13;7.70;;;1.75;;
58685;SDS011;44465;53.206;-6.106;2022-07-21T12:33:46;11.50;;;1.90;;
58685;SDS011;44465;53.206;-6.106;2022-07-21T12:36:12;10.48;;;2.88;;
58685;SDS011;44465;53.206;-6.106;2022-07-21T12:38:38;10.80;;;2.53;;
58685;SDS011;44465;53.206;-6.106;2022-07-21T12:41:15;9.55;;;2.88;;
58685;SDS011;44465;53.206;-6.106;2022-07-21T12:43:52;18.88;;;3.15;;
58685;SDS011;44465;53.206;-6.106;2022-07-21T12:46:19;20.27;;;2.67;;
58685;SDS011;44465;53.206;-6.106;2022-07-21T12:48:44;14.75;;;2.63;;
58685;SDS011;44465;53.206;-6.106;2022-07-21T12:51:20;17.58;;;3.42;;
58685;SDS011;44465;53.206;-6.106;2022-07-21T12:53:51;35.38;;;5.95;;
58685;SDS011;44465;53.206;-6.106;2022-07-21T12:58:45;28.48;;;3.03;;
58685;SDS011;44465;53.206;-6.106;2022-07-21T13:01:12;24.40;;;3.10;;
58685;SDS011;44465;53.206;-6.106;2022-07-21T13:06:05;21.23;;;3.38;;
58685;SDS011;44465;53.206;-6.106;2022-07-21T13:08:32;21.27;;;2.90;;
58685;SDS011;44465;53.206;-6.106;2022-07-21T13:10:58;25.15;;;3.10;;
58685;SDS011;44465;53.206;-6.106;2022-07-21T13:13:24;22.15;;;3.30;;
58685;SDS011;44465;53.206;-6.106;2022-07-21T13:15:51;18.73;;;3.40;;
58685;SDS011;44465;53.206;-6.106;2022-07-21T13:18:16;13.07;;;2.78;;
58685;SDS011;44465;53.206;-6.106;2022-07-21T13:20:42;19.17;;;2.78;;
58685;SDS011;44465;53.206;-6.106;2022-07-21T13:23:08;10.27;;;2.38;;
58685;SDS011;44465;53.206;-6.106;2022-07-21T13:25:34;11.05;;;3.05;;
58685;SDS011;44465;53.206;-6.106;2022-07-21T13:28:00;15.95;;;2.67;;
58685;SDS011;44465;53.206;-6.106;2022-07-21T13:30:26;13.10;;;2.33;;
58685;SDS011;44465;53.206;-6.106;2022-07-21T13:32:51;9.55;;;2.13;;
58685;SDS011;44465;53.206;-6.106;2022-07-21T13:35:17;5.93;;;2.00;;
58685;SDS011;44465;53.206;-6.106;2022-07-21T13:37:42;13.75;;;3.33;;
58685;SDS011;44465;53.206;-6.106;2022-07-21T13:40:08;14.93;;;1.92;;
58685;SDS011;44465;53.206;-6.106;2022-07-21T13:42:34;6.63;;;1.80;;
58685;SDS011;44465;53.206;-6.106;2022-07-21T13:44:59;18.52;;;3.13;;
58685;SDS011;44465;53.206;-6.106;2022-07-21T13:47:25;19.45;;;2.75;;
58685;SDS011;44465;53.206;-6.106;2022-07-21T13:49:50;10.43;;;2.15;;
58685;SDS011;44465;53.206;-6.106;2022-07-21T13:52:16;17.88;;;3.28;;
58685;SDS011;44465;53.206;-6.106;2022-07-21T13:54:41;15.93;;;2.85;;
58685;SDS011;44465;53.206;-6.106;2022-07-21T13:57:07;11.07;;;2.10;;
58685;SDS011;44465;53.206;-6.106;2022-07-21T13:59:32;11.23;;;2.20;;
58685;SDS011;44465;53.206;-6.106;2022-07-21T14:01:57;15.20;;;2.33;;
58685;SDS011;44465;53.206;-6.106;2022-07-21T14:04:23;10.95;;;1.90;;
58685;SDS011;44465;53.206;-6.106;2022-07-21T14:06:49;10.77;;;1.85;;
58685;SDS011;44465;53.206;-6.106;2022-07-21T14:09:17;8.50;;;1.65;;
58685;SDS011;44465;53.206;-6.106;2022-07-21T14:11:43;11.55;;;2.22;;
58685;SDS011;44465;53.206;-6.106;2022-07-21T14:14:10;10.65;;;1.80;;
58685;SDS011;44465;53.206;-6.106;2022-07-21T14:16:40;5.93;;;1.83;;
58685;SDS011;44465;53.206;-6.106;2022-07-21T14:19:06;11.73;;;2.20;;
58685;SDS011;44465;53.206;-6.106;2022-07-21T14:21:31;6.05;;;1.77;;
58685;SDS011;44465;53.206;-6.106;2022-07-21T14:23:56;7.30;;;1.80;;
58685;SDS011;44465;53.206;-6.106;2022-07-21T14:26:41;5.28;;;1.40;;
58685;SDS011;44465;53.206;-6.106;2022-07-21T14:29:06;8.52;;;1.98;;
58685;SDS011;44465;53.206;-6.106;2022-07-21T14:31:31;7.43;;;1.90;;
58685;SDS011;44465;53.206;-6.106;2022-07-21T14:33:57;11.20;;;1.58;;
58685;SDS011;44465;53.206;-6.106;2022-07-21T14:36:23;3.42;;;1.40;;
58685;SDS011;44465;53.206;-6.106;2022-07-21T14:38:48;4.57;;;1.52;;
58685;SDS011;44465;53.206;-6.106;2022-07-21T14:41:13;4.72;;;1.63;;
58685;SDS011;44465;53.206;-6.106;2022-07-21T14:43:39;6.18;;;1.67;;
58685;SDS011;44465;53.206;-6.106;2022-07-21T14:46:04;7.40;;;2.13;;
58685;SDS011;44465;53.206;-6.106;2022-07-21T14:48:30;5.05;;;1.50;;
58685;SDS011;44465;53.206;-6.106;2022-07-21T14:50:55;4.88;;;1.40;;
58685;SDS011;44465;53.206;-6.106;2022-07-21T14:53:21;3.50;;;1.45;;
58685;SDS011;44465;53.206;-6.106;2022-07-21T14:55:46;1.75;;;1.10;;
58685;SDS011;44465;53.206;-6.106;2022-07-21T14:58:12;4.60;;;1.45;;
58685;SDS011;44465;53.206;-6.106;2022-07-21T15:00:37;6.30;;;1.50;;
58685;SDS011;44465;53.206;-6.106;2022-07-21T15:03:03;4.47;;;1.65;;
58685;SDS011;44465;53.206;-6.106;2022-07-21T15:05:28;7.38;;;1.77;;
58685;SDS011;44465;53.206;-6.106;2022-07-21T15:07:54;2.70;;;1.02;;
58685;SDS011;44465;53.206;-6.106;2022-07-21T15:10:19;8.10;;;1.15;;
58685;SDS011;44465;53.206;-6.106;2022-07-21T15:12:45;3.10;;;1.20;;
58685;SDS011;44465;53.206;-6.106;2022-07-21T15:15:10;3.10;;;1.02;;
58685;SDS011;44465;53.206;-6.106;2022-07-21T15:17:36;2.63;;;1.25;;
58685;SDS011;44465;53.206;-6.106;2022-07-21T15:20:02;3.78;;;0.93;;
58685;SDS011;44465;53.206;-6.106;2022-07-21T15:22:28;4.72;;;1.25;;
58685;SDS011;44465;53.206;-6.106;2022-07-21T15:24:58;2.70;;;1.10;;